sensor_id;sensor_type;location;lat;lon;timestamp;P1;durP1;ratioP1;P2;durP2;ratioP2
16957;SDS011;8595;52.542;11.974;2022-10-31T00:01:23;24.42;;;13.15;;
16957;SDS011;8595;52.542;11.974;2022-10-31T00:03:52;20.98;;;12.38;;
16957;SDS011;8595;52.542;11.974;2022-10-31T00:06:19;25.13;;;12.52;;
16957;SDS011;8595;52.542;11.974;2022-10-31T00:08:47;18.73;;;11.45;;
16957;SDS011;8595;52.542;11.974;2022-10-31T00:11:19;19.45;;;11.77;;
16957;SDS011;8595;52.542;11.974;2022-10-31T00:13:46;21.52;;;12.38;;
16957;SDS011;8595;52.542;11.974;2022-10-31T00:16:14;18.20;;;11.40;;
16957;SDS011;8595;52.542;11.974;2022-10-31T00:18:41;19.13;;;11.43;;
16957;SDS011;8595;52.542;11.974;2022-10-31T00:21:08;18.70;;;12.07;;
16957;SDS011;8595;52.542;11.974;2022-10-31T00:23:35;19.98;;;11.73;;
16957;SDS011;8595;52.542;11.974;2022-10-31T00:26:02;19.40;;;11.85;;
16957;SDS011;8595;52.542;11.974;2022-10-31T00:28:31;22.30;;;10.68;;
16957;SDS011;8595;52.542;11.974;2022-10-31T00:30:59;16.42;;;11.52;;
16957;SDS011;8595;52.542;11.974;2022-10-31T00:33:26;20.65;;;10.95;;
16957;SDS011;8595;52.542;11.974;2022-10-31T00:35:53;16.55;;;10.00;;
16957;SDS011;8595;52.542;11.974;2022-10-31T00:38:20;16.52;;;10.23;;
16957;SDS011;8595;52.542;11.974;2022-10-31T00:40:47;21.08;;;10.73;;
16957;SDS011;8595;52.542;11.974;2022-10-31T00:43:14;20.02;;;11.13;;
16957;SDS011;8595;52.542;11.974;2022-10-31T00:45:42;22.58;;;10.73;;
16957;SDS011;8595;52.542;11.974;2022-10-31T00:48:09;15.95;;;10.30;;
16957;SDS011;8595;52.542;11.974;2022-10-31T00:50:36;20.80;;;10.82;;
16957;SDS011;8595;52.542;11.974;2022-10-31T00:53:03;17.58;;;10.63;;
16957;SDS011;8595;52.542;11.974;2022-10-31T00:55:30;13.77;;;9.45;;
16957;SDS011;8595;52.542;11.974;2022-10-31T00:57:57;20.92;;;10.77;;
16957;SDS011;8595;52.542;11.974;2022-10-31T01:00:24;20.67;;;10.68;;
16957;SDS011;8595;52.542;11.974;2022-10-31T01:02:53;20.42;;;9.35;;
16957;SDS011;8595;52.542;11.974;2022-10-31T01:05:19;16.15;;;9.95;;
16957;SDS011;8595;52.542;11.974;2022-10-31T01:07:46;16.00;;;11.32;;
16957;SDS011;8595;52.542;11.974;2022-10-31T01:10:13;20.55;;;11.55;;
16957;SDS011;8595;52.542;11.974;2022-10-31T01:12:41;17.48;;;10.52;;
16957;SDS011;8595;52.542;11.974;2022-10-31T01:15:09;21.23;;;10.93;;
16957;SDS011;8595;52.542;11.974;2022-10-31T01:17:37;25.30;;;11.73;;
16957;SDS011;8595;52.542;11.974;2022-10-31T01:20:06;22.65;;;11.07;;
16957;SDS011;8595;52.542;11.974;2022-10-31T01:22:34;15.88;;;9.90;;
16957;SDS011;8595;52.542;11.974;2022-10-31T01:25:01;20.75;;;10.60;;
16957;SDS011;8595;52.542;11.974;2022-10-31T01:27:28;19.60;;;10.60;;
16957;SDS011;8595;52.542;11.974;2022-10-31T01:29:55;18.10;;;10.15;;
16957;SDS011;8595;52.542;11.974;2022-10-31T01:32:21;21.02;;;9.73;;
16957;SDS011;8595;52.542;11.974;2022-10-31T01:34:48;19.35;;;11.10;;
16957;SDS011;8595;52.542;11.974;2022-10-31T01:37:16;19.27;;;10.38;;
16957;SDS011;8595;52.542;11.974;2022-10-31T01:39:43;18.92;;;10.60;;
16957;SDS011;8595;52.542;11.974;2022-10-31T01:42:11;21.30;;;9.90;;
16957;SDS011;8595;52.542;11.974;2022-10-31T01:44:49;18.67;;;10.85;;
16957;SDS011;8595;52.542;11.974;2022-10-31T01:47:20;16.98;;;10.00;;
16957;SDS011;8595;52.542;11.974;2022-10-31T01:49:54;20.05;;;9.00;;
16957;SDS011;8595;52.542;11.974;2022-10-31T01:52:25;20.95;;;10.40;;
16957;SDS011;8595;52.542;11.974;2022-10-31T01:54:55;22.58;;;10.73;;
16957;SDS011;8595;52.542;11.974;2022-10-31T01:57:26;22.15;;;10.18;;
16957;SDS011;8595;52.542;11.974;2022-10-31T01:59:55;21.20;;;10.70;;
16957;SDS011;8595;52.542;11.974;2022-10-31T02:02:26;22.92;;;10.77;;
16957;SDS011;8595;52.542;11.974;2022-10-31T02:04:55;19.63;;;11.23;;
16957;SDS011;8595;52.542;11.974;2022-10-31T02:07:25;18.58;;;10.60;;
16957;SDS011;8595;52.542;11.974;2022-10-31T02:09:56;17.85;;;10.15;;
16957;SDS011;8595;52.542;11.974;2022-10-31T02:12:23;19.40;;;9.77;;
16957;SDS011;8595;52.542;11.974;2022-10-31T02:14:51;20.52;;;10.95;;
16957;SDS011;8595;52.542;11.974;2022-10-31T02:17:18;18.58;;;10.75;;
16957;SDS011;8595;52.542;11.974;2022-10-31T02:19:46;20.30;;;10.20;;
16957;SDS011;8595;52.542;11.974;2022-10-31T02:22:20;17.02;;;10.02;;
16957;SDS011;8595;52.542;11.974;2022-10-31T02:24:58;20.48;;;11.80;;
16957;SDS011;8595;52.542;11.974;2022-10-31T02:27:50;14.82;;;10.32;;
16957;SDS011;8595;52.542;11.974;2022-10-31T02:30:31;17.45;;;10.57;;
16957;SDS011;8595;52.542;11.974;2022-10-31T02:33:10;19.83;;;10.65;;
16957;SDS011;8595;52.542;11.974;2022-10-31T02:35:49;18.63;;;10.50;;
16957;SDS011;8595;52.542;11.974;2022-10-31T02:38:24;24.50;;;11.10;;
16957;SDS011;8595;52.542;11.974;2022-10-31T02:41:00;17.40;;;10.18;;
16957;SDS011;8595;52.542;11.974;2022-10-31T02:43:31;15.02;;;9.77;;
16957;SDS011;8595;52.542;11.974;2022-10-31T02:46:03;18.25;;;10.60;;
16957;SDS011;8595;52.542;11.974;2022-10-31T02:48:37;18.23;;;11.55;;
16957;SDS011;8595;52.542;11.974;2022-10-31T02:51:05;12.90;;;10.15;;
16957;SDS011;8595;52.542;11.974;2022-10-31T02:53:34;23.63;;;12.02;;
16957;SDS011;8595;52.542;11.974;2022-10-31T02:56:04;18.42;;;11.60;;
16957;SDS011;8595;52.542;11.974;2022-10-31T02:58:35;17.63;;;12.13;;
16957;SDS011;8595;52.542;11.974;2022-10-31T03:01:10;22.27;;;12.23;;
16957;SDS011;8595;52.542;11.974;2022-10-31T03:03:53;21.92;;;11.25;;
16957;SDS011;8595;52.542;11.974;2022-10-31T03:06:30;19.83;;;11.63;;
16957;SDS011;8595;52.542;11.974;2022-10-31T03:09:00;22.95;;;11.98;;
16957;SDS011;8595;52.542;11.974;2022-10-31T03:11:37;25.20;;;11.73;;
16957;SDS011;8595;52.542;11.974;2022-10-31T03:14:11;20.63;;;12.43;;
16957;SDS011;8595;52.542;11.974;2022-10-31T03:16:45;21.08;;;12.35;;
16957;SDS011;8595;52.542;11.974;2022-10-31T03:19:15;21.48;;;12.18;;
16957;SDS011;8595;52.542;11.974;2022-10-31T03:21:45;20.65;;;12.25;;
16957;SDS011;8595;52.542;11.974;2022-10-31T03:24:16;19.55;;;12.00;;
16957;SDS011;8595;52.542;11.974;2022-10-31T03:26:46;24.73;;;13.93;;
16957;SDS011;8595;52.542;11.974;2022-10-31T03:29:16;26.92;;;13.25;;
16957;SDS011;8595;52.542;11.974;2022-10-31T03:31:47;23.50;;;11.98;;
16957;SDS011;8595;52.542;11.974;2022-10-31T03:34:19;18.10;;;12.13;;
16957;SDS011;8595;52.542;11.974;2022-10-31T03:36:46;18.65;;;13.43;;
16957;SDS011;8595;52.542;11.974;2022-10-31T03:39:17;21.40;;;12.82;;
16957;SDS011;8595;52.542;11.974;2022-10-31T03:41:47;21.70;;;13.02;;
16957;SDS011;8595;52.542;11.974;2022-10-31T03:44:19;22.02;;;13.30;;
16957;SDS011;8595;52.542;11.974;2022-10-31T03:46:49;22.33;;;11.85;;
16957;SDS011;8595;52.542;11.974;2022-10-31T03:49:16;22.85;;;12.70;;
16957;SDS011;8595;52.542;11.974;2022-10-31T03:51:45;25.48;;;13.38;;
16957;SDS011;8595;52.542;11.974;2022-10-31T03:54:18;24.55;;;12.18;;
16957;SDS011;8595;52.542;11.974;2022-10-31T03:56:52;23.30;;;12.57;;
16957;SDS011;8595;52.542;11.974;2022-10-31T03:59:23;24.73;;;14.07;;
16957;SDS011;8595;52.542;11.974;2022-10-31T04:01:53;20.25;;;13.93;;
16957;SDS011;8595;52.542;11.974;2022-10-31T04:04:25;29.25;;;13.95;;
16957;SDS011;8595;52.542;11.974;2022-10-31T04:06:55;25.00;;;14.95;;
16957;SDS011;8595;52.542;11.974;2022-10-31T04:09:24;25.33;;;14.90;;
16957;SDS011;8595;52.542;11.974;2022-10-31T04:11:53;26.20;;;16.02;;
16957;SDS011;8595;52.542;11.974;2022-10-31T04:14:23;25.27;;;14.73;;
16957;SDS011;8595;52.542;11.974;2022-10-31T04:16:53;29.50;;;15.85;;
16957;SDS011;8595;52.542;11.974;2022-10-31T04:19:20;29.80;;;18.02;;
16957;SDS011;8595;52.542;11.974;2022-10-31T04:21:47;26.52;;;16.27;;
16957;SDS011;8595;52.542;11.974;2022-10-31T04:24:16;30.65;;;17.23;;
16957;SDS011;8595;52.542;11.974;2022-10-31T04:26:43;24.65;;;16.70;;
16957;SDS011;8595;52.542;11.974;2022-10-31T04:29:10;24.83;;;15.65;;
16957;SDS011;8595;52.542;11.974;2022-10-31T04:31:37;30.58;;;16.58;;
16957;SDS011;8595;52.542;11.974;2022-10-31T04:34:03;25.70;;;17.08;;
16957;SDS011;8595;52.542;11.974;2022-10-31T04:36:30;27.88;;;17.63;;
16957;SDS011;8595;52.542;11.974;2022-10-31T04:38:57;32.28;;;18.45;;
16957;SDS011;8595;52.542;11.974;2022-10-31T04:41:25;22.45;;;15.10;;
16957;SDS011;8595;52.542;11.974;2022-10-31T04:43:52;35.55;;;19.63;;
16957;SDS011;8595;52.542;11.974;2022-10-31T04:46:19;31.50;;;16.50;;
16957;SDS011;8595;52.542;11.974;2022-10-31T04:48:45;26.88;;;17.35;;
16957;SDS011;8595;52.542;11.974;2022-10-31T04:51:12;30.50;;;19.05;;
16957;SDS011;8595;52.542;11.974;2022-10-31T04:53:39;30.67;;;18.27;;
16957;SDS011;8595;52.542;11.974;2022-10-31T04:56:06;24.17;;;16.67;;
16957;SDS011;8595;52.542;11.974;2022-10-31T04:58:34;34.83;;;19.45;;
16957;SDS011;8595;52.542;11.974;2022-10-31T05:01:01;39.78;;;28.00;;
16957;SDS011;8595;52.542;11.974;2022-10-31T05:03:28;37.53;;;20.65;;
16957;SDS011;8595;52.542;11.974;2022-10-31T05:05:55;29.90;;;17.73;;
16957;SDS011;8595;52.542;11.974;2022-10-31T05:08:21;31.33;;;18.58;;
16957;SDS011;8595;52.542;11.974;2022-10-31T05:10:48;59.80;;;41.83;;
16957;SDS011;8595;52.542;11.974;2022-10-31T05:13:15;72.38;;;45.30;;
16957;SDS011;8595;52.542;11.974;2022-10-31T05:15:43;40.83;;;22.60;;
16957;SDS011;8595;52.542;11.974;2022-10-31T05:18:10;33.58;;;21.75;;
16957;SDS011;8595;52.542;11.974;2022-10-31T05:20:37;31.85;;;20.10;;
16957;SDS011;8595;52.542;11.974;2022-10-31T05:23:03;38.63;;;22.00;;
16957;SDS011;8595;52.542;11.974;2022-10-31T05:25:30;33.92;;;20.05;;
16957;SDS011;8595;52.542;11.974;2022-10-31T05:27:57;36.78;;;20.33;;
16957;SDS011;8595;52.542;11.974;2022-10-31T05:30:24;32.15;;;21.50;;
16957;SDS011;8595;52.542;11.974;2022-10-31T05:32:54;34.40;;;21.63;;
16957;SDS011;8595;52.542;11.974;2022-10-31T05:35:22;34.97;;;22.70;;
16957;SDS011;8595;52.542;11.974;2022-10-31T05:37:51;34.05;;;22.30;;
16957;SDS011;8595;52.542;11.974;2022-10-31T05:40:19;39.67;;;23.20;;
16957;SDS011;8595;52.542;11.974;2022-10-31T05:42:46;35.42;;;21.08;;
16957;SDS011;8595;52.542;11.974;2022-10-31T05:45:15;36.60;;;24.98;;
16957;SDS011;8595;52.542;11.974;2022-10-31T05:47:49;43.33;;;24.27;;
16957;SDS011;8595;52.542;11.974;2022-10-31T05:50:18;40.50;;;24.58;;
16957;SDS011;8595;52.542;11.974;2022-10-31T05:52:45;35.47;;;21.90;;
16957;SDS011;8595;52.542;11.974;2022-10-31T05:55:13;35.40;;;22.75;;
16957;SDS011;8595;52.542;11.974;2022-10-31T05:57:40;47.05;;;23.58;;
16957;SDS011;8595;52.542;11.974;2022-10-31T06:00:08;42.05;;;26.30;;
16957;SDS011;8595;52.542;11.974;2022-10-31T06:02:35;39.17;;;25.42;;
16957;SDS011;8595;52.542;11.974;2022-10-31T06:05:02;39.42;;;26.88;;
16957;SDS011;8595;52.542;11.974;2022-10-31T06:07:33;46.33;;;25.50;;
16957;SDS011;8595;52.542;11.974;2022-10-31T06:10:00;42.75;;;28.85;;
16957;SDS011;8595;52.542;11.974;2022-10-31T06:12:28;32.35;;;23.05;;
16957;SDS011;8595;52.542;11.974;2022-10-31T06:14:54;48.95;;;27.00;;
16957;SDS011;8595;52.542;11.974;2022-10-31T06:17:21;42.25;;;25.08;;
16957;SDS011;8595;52.542;11.974;2022-10-31T06:19:48;47.20;;;27.38;;
16957;SDS011;8595;52.542;11.974;2022-10-31T06:22:15;44.83;;;25.80;;
16957;SDS011;8595;52.542;11.974;2022-10-31T06:24:43;52.45;;;30.23;;
16957;SDS011;8595;52.542;11.974;2022-10-31T06:27:09;45.67;;;26.00;;
16957;SDS011;8595;52.542;11.974;2022-10-31T06:29:36;46.03;;;30.08;;
16957;SDS011;8595;52.542;11.974;2022-10-31T06:32:03;51.00;;;28.83;;
16957;SDS011;8595;52.542;11.974;2022-10-31T06:34:30;38.05;;;23.77;;
16957;SDS011;8595;52.542;11.974;2022-10-31T06:36:57;47.97;;;27.88;;
16957;SDS011;8595;52.542;11.974;2022-10-31T06:39:23;50.90;;;28.13;;
16957;SDS011;8595;52.542;11.974;2022-10-31T06:41:51;45.83;;;24.70;;
16957;SDS011;8595;52.542;11.974;2022-10-31T06:44:18;39.78;;;24.83;;
16957;SDS011;8595;52.542;11.974;2022-10-31T06:46:45;43.13;;;26.92;;
16957;SDS011;8595;52.542;11.974;2022-10-31T06:49:12;37.95;;;25.05;;
16957;SDS011;8595;52.542;11.974;2022-10-31T06:51:39;43.28;;;25.02;;
16957;SDS011;8595;52.542;11.974;2022-10-31T06:54:06;43.95;;;26.95;;
16957;SDS011;8595;52.542;11.974;2022-10-31T06:56:33;38.58;;;23.77;;
16957;SDS011;8595;52.542;11.974;2022-10-31T06:59:01;41.83;;;24.75;;
16957;SDS011;8595;52.542;11.974;2022-10-31T07:01:27;49.95;;;26.85;;
16957;SDS011;8595;52.542;11.974;2022-10-31T07:03:54;47.42;;;27.05;;
16957;SDS011;8595;52.542;11.974;2022-10-31T07:06:21;37.13;;;25.35;;
16957;SDS011;8595;52.542;11.974;2022-10-31T07:08:48;48.85;;;27.15;;
16957;SDS011;8595;52.542;11.974;2022-10-31T07:11:15;51.55;;;29.15;;
16957;SDS011;8595;52.542;11.974;2022-10-31T07:13:42;71.97;;;44.22;;
16957;SDS011;8595;52.542;11.974;2022-10-31T07:16:10;56.08;;;31.23;;
16957;SDS011;8595;52.542;11.974;2022-10-31T07:18:39;54.22;;;29.60;;
16957;SDS011;8595;52.542;11.974;2022-10-31T07:21:06;55.40;;;28.40;;
16957;SDS011;8595;52.542;11.974;2022-10-31T07:23:32;48.15;;;27.33;;
16957;SDS011;8595;52.542;11.974;2022-10-31T07:25:59;52.80;;;30.45;;
16957;SDS011;8595;52.542;11.974;2022-10-31T07:28:26;65.28;;;36.50;;
16957;SDS011;8595;52.542;11.974;2022-10-31T07:30:54;97.95;;;59.85;;
16957;SDS011;8595;52.542;11.974;2022-10-31T07:33:24;62.33;;;33.67;;
16957;SDS011;8595;52.542;11.974;2022-10-31T07:35:52;63.65;;;31.90;;
16957;SDS011;8595;52.542;11.974;2022-10-31T07:38:19;66.43;;;34.78;;
16957;SDS011;8595;52.542;11.974;2022-10-31T07:40:49;61.10;;;31.38;;
16957;SDS011;8595;52.542;11.974;2022-10-31T07:43:17;69.70;;;34.58;;
16957;SDS011;8595;52.542;11.974;2022-10-31T07:45:48;72.97;;;33.80;;
16957;SDS011;8595;52.542;11.974;2022-10-31T07:48:16;67.28;;;36.33;;
16957;SDS011;8595;52.542;11.974;2022-10-31T07:50:44;73.30;;;37.42;;
16957;SDS011;8595;52.542;11.974;2022-10-31T07:53:12;72.20;;;36.45;;
16957;SDS011;8595;52.542;11.974;2022-10-31T07:55:40;64.68;;;33.78;;
16957;SDS011;8595;52.542;11.974;2022-10-31T07:58:08;72.30;;;37.08;;
16957;SDS011;8595;52.542;11.974;2022-10-31T08:00:36;88.78;;;44.58;;
16957;SDS011;8595;52.542;11.974;2022-10-31T08:03:04;130.68;;;42.75;;
16957;SDS011;8595;52.542;11.974;2022-10-31T08:05:32;85.80;;;40.10;;
16957;SDS011;8595;52.542;11.974;2022-10-31T08:08:01;75.32;;;36.42;;
16957;SDS011;8595;52.542;11.974;2022-10-31T08:10:28;79.43;;;37.78;;
16957;SDS011;8595;52.542;11.974;2022-10-31T08:12:56;105.07;;;46.03;;
16957;SDS011;8595;52.542;11.974;2022-10-31T08:15:24;87.05;;;42.72;;
16957;SDS011;8595;52.542;11.974;2022-10-31T08:17:51;89.78;;;40.50;;
16957;SDS011;8595;52.542;11.974;2022-10-31T08:20:18;91.40;;;42.65;;
16957;SDS011;8595;52.542;11.974;2022-10-31T08:22:52;77.10;;;39.30;;
16957;SDS011;8595;52.542;11.974;2022-10-31T08:25:24;82.70;;;40.92;;
16957;SDS011;8595;52.542;11.974;2022-10-31T08:27:52;73.88;;;38.63;;
16957;SDS011;8595;52.542;11.974;2022-10-31T08:30:20;62.50;;;32.92;;
16957;SDS011;8595;52.542;11.974;2022-10-31T08:32:47;81.63;;;38.30;;
16957;SDS011;8595;52.542;11.974;2022-10-31T08:35:22;104.38;;;58.50;;
16957;SDS011;8595;52.542;11.974;2022-10-31T08:37:51;79.05;;;37.65;;
16957;SDS011;8595;52.542;11.974;2022-10-31T08:40:18;72.55;;;36.90;;
16957;SDS011;8595;52.542;11.974;2022-10-31T08:42:46;66.38;;;34.58;;
16957;SDS011;8595;52.542;11.974;2022-10-31T08:45:13;60.65;;;34.92;;
16957;SDS011;8595;52.542;11.974;2022-10-31T08:47:40;53.03;;;30.65;;
16957;SDS011;8595;52.542;11.974;2022-10-31T08:50:07;58.17;;;34.45;;
16957;SDS011;8595;52.542;11.974;2022-10-31T08:52:34;58.80;;;34.92;;
16957;SDS011;8595;52.542;11.974;2022-10-31T08:55:01;51.92;;;31.60;;
16957;SDS011;8595;52.542;11.974;2022-10-31T08:57:27;47.25;;;30.65;;
16957;SDS011;8595;52.542;11.974;2022-10-31T08:59:55;56.53;;;36.45;;
16957;SDS011;8595;52.542;11.974;2022-10-31T09:02:22;61.08;;;33.63;;
16957;SDS011;8595;52.542;11.974;2022-10-31T09:04:49;53.88;;;31.40;;
16957;SDS011;8595;52.542;11.974;2022-10-31T09:07:16;51.25;;;33.50;;
16957;SDS011;8595;52.542;11.974;2022-10-31T09:09:43;43.72;;;26.67;;
16957;SDS011;8595;52.542;11.974;2022-10-31T09:12:10;43.38;;;27.65;;
16957;SDS011;8595;52.542;11.974;2022-10-31T09:14:37;42.80;;;26.92;;
16957;SDS011;8595;52.542;11.974;2022-10-31T09:17:05;41.50;;;25.33;;
16957;SDS011;8595;52.542;11.974;2022-10-31T09:19:32;58.90;;;32.72;;
16957;SDS011;8595;52.542;11.974;2022-10-31T09:22:01;54.97;;;30.17;;
16957;SDS011;8595;52.542;11.974;2022-10-31T09:24:27;54.67;;;28.02;;
16957;SDS011;8595;52.542;11.974;2022-10-31T09:26:54;52.65;;;29.52;;
16957;SDS011;8595;52.542;11.974;2022-10-31T09:29:21;43.83;;;25.05;;
16957;SDS011;8595;52.542;11.974;2022-10-31T09:31:48;49.47;;;27.42;;
16957;SDS011;8595;52.542;11.974;2022-10-31T09:34:16;40.60;;;24.60;;
16957;SDS011;8595;52.542;11.974;2022-10-31T09:36:43;43.95;;;26.05;;
16957;SDS011;8595;52.542;11.974;2022-10-31T09:39:11;40.30;;;24.98;;
16957;SDS011;8595;52.542;11.974;2022-10-31T09:41:44;39.83;;;23.55;;
16957;SDS011;8595;52.542;11.974;2022-10-31T09:44:25;40.15;;;23.58;;
16957;SDS011;8595;52.542;11.974;2022-10-31T09:47:00;44.78;;;23.30;;
16957;SDS011;8595;52.542;11.974;2022-10-31T09:49:40;34.38;;;21.90;;
16957;SDS011;8595;52.542;11.974;2022-10-31T09:52:28;34.10;;;21.67;;
16957;SDS011;8595;52.542;11.974;2022-10-31T09:54:58;41.90;;;23.38;;
16957;SDS011;8595;52.542;11.974;2022-10-31T09:57:29;41.50;;;25.15;;
16957;SDS011;8595;52.542;11.974;2022-10-31T09:59:58;43.65;;;24.02;;
16957;SDS011;8595;52.542;11.974;2022-10-31T10:02:27;38.22;;;22.35;;
16957;SDS011;8595;52.542;11.974;2022-10-31T10:05:01;43.17;;;25.27;;
16957;SDS011;8595;52.542;11.974;2022-10-31T10:10:17;39.75;;;25.10;;
16957;SDS011;8595;52.542;11.974;2022-10-31T10:12:57;45.05;;;29.85;;
16957;SDS011;8595;52.542;11.974;2022-10-31T10:15:41;37.75;;;23.40;;
16957;SDS011;8595;52.542;11.974;2022-10-31T10:18:21;39.25;;;23.98;;
16957;SDS011;8595;52.542;11.974;2022-10-31T10:20:59;36.70;;;23.30;;
16957;SDS011;8595;52.542;11.974;2022-10-31T10:23:43;41.85;;;23.42;;
16957;SDS011;8595;52.542;11.974;2022-10-31T10:26:17;35.90;;;22.50;;
16957;SDS011;8595;52.542;11.974;2022-10-31T10:28:46;39.88;;;22.77;;
16957;SDS011;8595;52.542;11.974;2022-10-31T10:31:16;35.53;;;22.50;;
16957;SDS011;8595;52.542;11.974;2022-10-31T10:33:47;41.00;;;24.77;;
16957;SDS011;8595;52.542;11.974;2022-10-31T10:36:30;32.30;;;21.73;;
16957;SDS011;8595;52.542;11.974;2022-10-31T10:39:02;44.00;;;26.33;;
16957;SDS011;8595;52.542;11.974;2022-10-31T10:41:34;35.65;;;24.95;;
16957;SDS011;8595;52.542;11.974;2022-10-31T10:44:02;33.67;;;20.60;;
16957;SDS011;8595;52.542;11.974;2022-10-31T10:46:44;37.95;;;22.77;;
16957;SDS011;8595;52.542;11.974;2022-10-31T10:49:37;37.92;;;23.88;;
16957;SDS011;8595;52.542;11.974;2022-10-31T10:52:13;32.80;;;21.77;;
16957;SDS011;8595;52.542;11.974;2022-10-31T10:54:46;34.35;;;22.38;;
16957;SDS011;8595;52.542;11.974;2022-10-31T10:57:30;44.63;;;27.63;;
16957;SDS011;8595;52.542;11.974;2022-10-31T11:00:11;38.70;;;22.83;;
16957;SDS011;8595;52.542;11.974;2022-10-31T11:02:43;37.80;;;23.35;;
16957;SDS011;8595;52.542;11.974;2022-10-31T11:05:13;39.03;;;24.75;;
16957;SDS011;8595;52.542;11.974;2022-10-31T11:07:47;34.33;;;22.35;;
16957;SDS011;8595;52.542;11.974;2022-10-31T11:10:15;33.78;;;21.42;;
16957;SDS011;8595;52.542;11.974;2022-10-31T11:12:43;31.08;;;20.88;;
16957;SDS011;8595;52.542;11.974;2022-10-31T11:15:17;36.78;;;23.92;;
16957;SDS011;8595;52.542;11.974;2022-10-31T11:17:47;41.92;;;24.75;;
16957;SDS011;8595;52.542;11.974;2022-10-31T11:20:29;35.97;;;23.95;;
16957;SDS011;8595;52.542;11.974;2022-10-31T11:23:03;37.90;;;25.45;;
16957;SDS011;8595;52.542;11.974;2022-10-31T11:25:31;37.65;;;24.77;;
16957;SDS011;8595;52.542;11.974;2022-10-31T11:28:01;39.30;;;24.95;;
16957;SDS011;8595;52.542;11.974;2022-10-31T11:30:30;43.03;;;25.88;;
16957;SDS011;8595;52.542;11.974;2022-10-31T11:33:11;42.70;;;25.30;;
16957;SDS011;8595;52.542;11.974;2022-10-31T11:35:43;36.45;;;22.98;;
16957;SDS011;8595;52.542;11.974;2022-10-31T11:38:13;34.78;;;22.58;;
16957;SDS011;8595;52.542;11.974;2022-10-31T11:40:51;34.28;;;21.98;;
16957;SDS011;8595;52.542;11.974;2022-10-31T11:43:20;35.00;;;24.42;;
16957;SDS011;8595;52.542;11.974;2022-10-31T11:45:48;40.22;;;25.48;;
16957;SDS011;8595;52.542;11.974;2022-10-31T11:48:15;42.92;;;26.58;;
16957;SDS011;8595;52.542;11.974;2022-10-31T11:50:47;44.35;;;29.20;;
16957;SDS011;8595;52.542;11.974;2022-10-31T11:53:17;38.85;;;25.15;;
16957;SDS011;8595;52.542;11.974;2022-10-31T11:55:46;35.90;;;23.70;;
16957;SDS011;8595;52.542;11.974;2022-10-31T11:58:26;38.63;;;24.13;;
16957;SDS011;8595;52.542;11.974;2022-10-31T12:00:53;40.17;;;24.58;;
16957;SDS011;8595;52.542;11.974;2022-10-31T12:06:16;42.22;;;26.05;;
16957;SDS011;8595;52.542;11.974;2022-10-31T12:08:48;37.08;;;25.70;;
16957;SDS011;8595;52.542;11.974;2022-10-31T12:11:27;45.38;;;29.05;;
16957;SDS011;8595;52.542;11.974;2022-10-31T12:14:06;44.47;;;28.80;;
16957;SDS011;8595;52.542;11.974;2022-10-31T12:16:43;44.85;;;30.00;;
16957;SDS011;8595;52.542;11.974;2022-10-31T12:19:18;43.90;;;29.58;;
16957;SDS011;8595;52.542;11.974;2022-10-31T12:21:58;40.95;;;27.45;;
16957;SDS011;8595;52.542;11.974;2022-10-31T12:27:35;40.22;;;25.92;;
16957;SDS011;8595;52.542;11.974;2022-10-31T12:30:19;43.85;;;28.33;;
16957;SDS011;8595;52.542;11.974;2022-10-31T12:32:52;42.88;;;27.23;;
16957;SDS011;8595;52.542;11.974;2022-10-31T12:35:40;46.28;;;26.38;;
16957;SDS011;8595;52.542;11.974;2022-10-31T12:41:21;43.03;;;27.17;;
16957;SDS011;8595;52.542;11.974;2022-10-31T12:44:05;52.15;;;32.28;;
16957;SDS011;8595;52.542;11.974;2022-10-31T12:46:45;43.03;;;27.05;;
16957;SDS011;8595;52.542;11.974;2022-10-31T12:49:41;46.25;;;28.60;;
16957;SDS011;8595;52.542;11.974;2022-10-31T12:52:22;42.25;;;28.23;;
16957;SDS011;8595;52.542;11.974;2022-10-31T12:55:04;42.38;;;26.27;;
16957;SDS011;8595;52.542;11.974;2022-10-31T12:57:44;45.05;;;25.67;;
16957;SDS011;8595;52.542;11.974;2022-10-31T13:00:15;40.05;;;28.25;;
16957;SDS011;8595;52.542;11.974;2022-10-31T13:02:44;42.90;;;26.05;;
16957;SDS011;8595;52.542;11.974;2022-10-31T13:05:19;44.95;;;28.10;;
16957;SDS011;8595;52.542;11.974;2022-10-31T13:07:54;40.63;;;28.45;;
16957;SDS011;8595;52.542;11.974;2022-10-31T13:10:24;46.55;;;29.63;;
16957;SDS011;8595;52.542;11.974;2022-10-31T13:13:00;45.60;;;28.10;;
16957;SDS011;8595;52.542;11.974;2022-10-31T13:15:32;42.65;;;25.42;;
16957;SDS011;8595;52.542;11.974;2022-10-31T13:18:10;52.95;;;34.20;;
16957;SDS011;8595;52.542;11.974;2022-10-31T13:20:45;49.20;;;28.75;;
16957;SDS011;8595;52.542;11.974;2022-10-31T13:23:14;45.97;;;27.48;;
16957;SDS011;8595;52.542;11.974;2022-10-31T13:25:46;49.72;;;30.77;;
16957;SDS011;8595;52.542;11.974;2022-10-31T13:28:23;47.28;;;28.02;;
16957;SDS011;8595;52.542;11.974;2022-10-31T13:30:55;45.58;;;30.52;;
16957;SDS011;8595;52.542;11.974;2022-10-31T13:33:23;50.78;;;32.63;;
16957;SDS011;8595;52.542;11.974;2022-10-31T13:35:55;50.63;;;31.63;;
16957;SDS011;8595;52.542;11.974;2022-10-31T13:38:37;62.70;;;33.78;;
16957;SDS011;8595;52.542;11.974;2022-10-31T13:41:11;49.70;;;31.38;;
16957;SDS011;8595;52.542;11.974;2022-10-31T13:43:51;48.85;;;32.25;;
16957;SDS011;8595;52.542;11.974;2022-10-31T13:46:26;52.53;;;33.58;;
16957;SDS011;8595;52.542;11.974;2022-10-31T13:49:02;54.75;;;33.50;;
16957;SDS011;8595;52.542;11.974;2022-10-31T13:51:30;53.35;;;31.50;;
16957;SDS011;8595;52.542;11.974;2022-10-31T13:54:00;61.08;;;35.38;;
16957;SDS011;8595;52.542;11.974;2022-10-31T13:56:32;52.83;;;32.67;;
16957;SDS011;8595;52.542;11.974;2022-10-31T13:59:18;56.85;;;34.85;;
16957;SDS011;8595;52.542;11.974;2022-10-31T14:01:51;61.75;;;38.33;;
16957;SDS011;8595;52.542;11.974;2022-10-31T14:04:21;59.95;;;35.17;;
16957;SDS011;8595;52.542;11.974;2022-10-31T14:06:55;68.63;;;40.20;;
16957;SDS011;8595;52.542;11.974;2022-10-31T14:09:31;68.30;;;41.00;;
16957;SDS011;8595;52.542;11.974;2022-10-31T14:12:04;65.50;;;40.47;;
16957;SDS011;8595;52.542;11.974;2022-10-31T14:14:42;58.65;;;36.75;;
16957;SDS011;8595;52.542;11.974;2022-10-31T14:17:16;63.85;;;36.42;;
16957;SDS011;8595;52.542;11.974;2022-10-31T14:19:56;85.38;;;58.15;;
16957;SDS011;8595;52.542;11.974;2022-10-31T14:22:31;72.15;;;38.10;;
16957;SDS011;8595;52.542;11.974;2022-10-31T14:24:59;70.05;;;39.83;;
16957;SDS011;8595;52.542;11.974;2022-10-31T14:27:33;54.25;;;34.33;;
16957;SDS011;8595;52.542;11.974;2022-10-31T14:30:15;58.67;;;37.05;;
16957;SDS011;8595;52.542;11.974;2022-10-31T14:32:44;71.00;;;38.80;;
16957;SDS011;8595;52.542;11.974;2022-10-31T14:35:15;68.32;;;36.45;;
16957;SDS011;8595;52.542;11.974;2022-10-31T14:38:01;70.85;;;41.20;;
16957;SDS011;8595;52.542;11.974;2022-10-31T14:40:39;71.00;;;39.28;;
16957;SDS011;8595;52.542;11.974;2022-10-31T14:43:26;73.95;;;40.42;;
16957;SDS011;8595;52.542;11.974;2022-10-31T14:46:02;74.43;;;41.95;;
16957;SDS011;8595;52.542;11.974;2022-10-31T14:48:42;66.90;;;40.53;;
16957;SDS011;8595;52.542;11.974;2022-10-31T14:51:19;80.18;;;43.33;;
16957;SDS011;8595;52.542;11.974;2022-10-31T14:53:48;70.38;;;41.60;;